createdAt,value
2022-09-17T00:00:38.073Z,65.68
2022-09-17T00:03:09.962Z,65.77
2022-09-17T00:05:37.840Z,66.64
2022-09-17T00:08:06.347Z,67.24
2022-09-17T00:10:37.655Z,66.83
2022-09-17T00:13:05.210Z,67.12
2022-09-17T00:15:31.912Z,66.81
2022-09-17T00:17:58.610Z,67.24
2022-09-17T00:20:26.371Z,67.00
2022-09-17T00:22:54.293Z,67.30
2022-09-17T00:25:20.962Z,66.63
2022-09-17T00:27:47.723Z,66.22
2022-09-17T00:30:14.541Z,66.43
2022-09-17T00:32:41.327Z,66.58
2022-09-17T00:35:08.016Z,66.24
2022-09-17T00:37:34.693Z,66.44
2022-09-17T00:40:01.411Z,65.37
2022-09-17T00:42:28.092Z,65.18
2022-09-17T00:44:57.127Z,65.51
2022-09-17T00:47:25.504Z,65.01
2022-09-17T00:49:57.974Z,65.54
2022-09-17T00:52:30.103Z,66.34
2022-09-17T00:55:02.825Z,67.17
2022-09-17T00:57:33.447Z,66.99
2022-09-17T01:00:00.574Z,66.22
2022-09-17T01:02:27.331Z,65.61
2022-09-17T01:04:54.627Z,67.00
2022-09-17T01:07:48.687Z,66.82
2022-09-17T01:10:55.857Z,67.69
2022-09-17T01:13:54.682Z,66.85
2022-09-17T01:16:41.318Z,66.65
2022-09-17T01:19:44.817Z,67.12
2022-09-17T01:22:26.090Z,68.62
2022-09-17T01:25:11.262Z,67.60
2022-09-17T01:27:55.903Z,67.55
2022-09-17T01:31:01.071Z,68.62
2022-09-17T01:33:50.934Z,68.19
2022-09-17T01:36:34.083Z,66.92
2022-09-17T01:39:37.393Z,67.45
2022-09-17T01:42:23.960Z,67.78
2022-09-17T01:45:18.593Z,67.74
2022-09-17T01:47:52.093Z,69.74
2022-09-17T01:50:27.002Z,71.11
2022-09-17T01:52:56.775Z,71.20
2022-09-17T01:55:30.153Z,73.71
2022-09-17T01:58:03.589Z,76.17
2022-09-17T02:00:31.134Z,77.94
2022-09-17T02:03:06.846Z,74.65
2022-09-17T02:05:51.446Z,72.13
2022-09-17T02:08:18.051Z,71.70
2022-09-17T02:10:49.732Z,73.64
2022-09-17T02:13:34.217Z,74.60
2022-09-17T02:16:19.431Z,78.71
2022-09-17T02:19:09.528Z,74.59
2022-09-17T02:21:54.665Z,69.79
2022-09-17T02:24:27.043Z,62.23
2022-09-17T02:27:28.221Z,55.46
2022-09-17T02:29:54.931Z,52.85
2022-09-17T02:32:21.598Z,51.09
2022-09-17T02:34:48.303Z,52.11
2022-09-17T02:37:15.240Z,59.37
2022-09-17T02:39:42.592Z,68.43
2022-09-17T02:42:27.925Z,67.25
2022-09-17T02:45:00.424Z,71.14
2022-09-17T02:48:02.193Z,73.33
2022-09-17T02:50:31.875Z,70.65
2022-09-17T02:53:08.408Z,69.66
2022-09-17T02:56:02.825Z,71.53
2022-09-17T02:58:45.466Z,73.08
2022-09-17T03:01:24.055Z,70.68
2022-09-17T03:03:53.431Z,74.29
2022-09-17T03:06:20.609Z,73.53
2022-09-17T03:08:47.723Z,71.86
2022-09-17T03:11:15.074Z,71.39
2022-09-17T03:13:41.831Z,70.18
2022-09-17T03:16:08.659Z,71.00
2022-09-17T03:18:35.491Z,74.16
2022-09-17T03:21:02.258Z,74.74
2022-09-17T03:23:29.047Z,75.95
2022-09-17T03:25:55.903Z,74.37
2022-09-17T03:28:22.767Z,76.19
2022-09-17T03:30:49.389Z,75.79
2022-09-17T03:33:16.004Z,75.75
2022-09-17T03:35:44.134Z,72.73
2022-09-17T03:38:11.571Z,71.34
2022-09-17T03:40:38.565Z,70.61
2022-09-17T03:43:06.062Z,69.61
2022-09-17T03:45:32.768Z,69.68
2022-09-17T03:47:59.371Z,70.27
2022-09-17T03:50:26.139Z,68.92
2022-09-17T03:52:52.846Z,68.28
2022-09-17T03:55:19.419Z,68.45
2022-09-17T03:57:46.026Z,74.06
2022-09-17T04:00:15.480Z,72.19
2022-09-17T04:02:43.100Z,70.44
2022-09-17T04:05:10.303Z,69.55
2022-09-17T04:07:36.909Z,71.30
2022-09-17T04:10:05.349Z,70.51
2022-09-17T04:12:32.344Z,69.75
2022-09-17T04:14:58.985Z,71.65
2022-09-17T04:17:25.713Z,71.64
2022-09-17T04:19:53.570Z,71.15
2022-09-17T04:22:20.284Z,69.64
2022-09-17T04:24:46.861Z,70.10
2022-09-17T04:27:13.543Z,71.27
2022-09-17T04:32:43.523Z,71.01
2022-09-17T04:35:40.572Z,71.93
2022-09-17T04:38:28.852Z,71.79
2022-09-17T04:41:12.899Z,69.35
2022-09-17T04:46:45.035Z,71.72
